createdAt,value
2019-04-30T00:00:21.093Z,88.70
2019-04-30T00:03:11.451Z,88.50
2019-04-30T00:05:59.637Z,87.90
2019-04-30T00:08:30.153Z,88.30
2019-04-30T00:11:19.651Z,88.30
2019-04-30T00:14:08.124Z,87.30
2019-04-30T00:16:56.647Z,87.50
2019-04-30T00:19:26.198Z,88.10
2019-04-30T00:22:00.135Z,88.20
2019-04-30T00:24:26.771Z,88.00
2019-04-30T00:27:15.408Z,87.90
2019-04-30T00:29:45.746Z,88.30
2019-04-30T00:32:16.091Z,89.00
2019-04-30T00:34:45.661Z,89.20
2019-04-30T00:37:35.276Z,88.80
2019-04-30T00:40:26.777Z,88.80
2019-04-30T00:45:47.551Z,87.70
2019-04-30T00:51:18.182Z,88.00
2019-04-30T00:53:53.387Z,88.70
2019-04-30T00:56:35.514Z,88.70
2019-04-30T00:59:07.100Z,88.10
2019-04-30T01:02:20.146Z,88.90
2019-04-30T01:08:16.560Z,88.60
2019-04-30T01:14:14.144Z,88.10
2019-04-30T01:17:03.708Z,89.40
2019-04-30T01:19:54.589Z,88.30
2019-04-30T01:22:43.530Z,88.90
2019-04-30T01:25:32.130Z,88.90
2019-04-30T01:28:24.143Z,87.50
2019-04-30T01:30:53.952Z,88.00
2019-04-30T01:33:23.425Z,88.90
2019-04-30T01:36:13.480Z,88.50
2019-04-30T01:39:02.155Z,88.20
2019-04-30T01:41:50.738Z,88.20
2019-04-30T01:44:20.155Z,88.30
2019-04-30T01:46:51.717Z,88.70
2019-04-30T01:49:44.205Z,88.90
2019-04-30T01:52:49.350Z,88.00
2019-04-30T01:55:59.173Z,88.10
2019-04-30T02:02:03.039Z,87.80
2019-04-30T02:04:51.555Z,87.80
2019-04-30T02:07:40.404Z,87.90
2019-04-30T02:10:11.597Z,86.80
2019-04-30T02:12:40.951Z,87.30
2019-04-30T02:15:10.351Z,87.20
2019-04-30T02:17:39.774Z,87.20
2019-04-30T02:20:09.385Z,87.10
2019-04-30T02:22:39.084Z,86.70
2019-04-30T02:25:29.366Z,86.80
2019-04-30T02:27:59.169Z,86.70
2019-04-30T02:30:50.402Z,87.00
2019-04-30T02:36:52.083Z,85.80
2019-04-30T02:39:40.863Z,86.10
2019-04-30T02:42:30.823Z,86.50
2019-04-30T02:45:20.726Z,86.30
2019-04-30T02:48:11.707Z,85.00
2019-04-30T02:50:42.402Z,85.60
2019-04-30T02:53:50.650Z,86.20
2019-04-30T02:56:42.062Z,84.90
2019-04-30T02:59:30.529Z,86.20
2019-04-30T03:02:19.592Z,87.50
2019-04-30T03:05:12.712Z,84.70
2019-04-30T03:07:40.777Z,85.40
2019-04-30T03:10:30.403Z,85.00
2019-04-30T03:13:20.087Z,84.90
2019-04-30T03:16:10.854Z,85.50
2019-04-30T03:19:19.645Z,85.40
2019-04-30T03:25:21.120Z,85.10
2019-04-30T03:28:09.817Z,85.60
2019-04-30T03:31:04.003Z,85.50
2019-04-30T03:33:52.271Z,85.10
2019-04-30T03:36:40.632Z,84.20
2019-04-30T03:39:33.626Z,83.80
2019-04-30T03:45:21.806Z,84.30
2019-04-30T03:48:03.314Z,84.90
2019-04-30T03:50:54.857Z,83.80
2019-04-30T03:53:15.711Z,81.60
2019-04-30T03:55:45.038Z,81.50
2019-04-30T03:58:14.470Z,81.10
2019-04-30T04:01:02.731Z,80.80
2019-04-30T04:04:10.359Z,81.10
2019-04-30T04:10:40.434Z,81.00
2019-04-30T04:13:30.077Z,81.80
2019-04-30T04:16:00.043Z,81.00
2019-04-30T04:18:50.106Z,81.80
2019-04-30T04:21:39.369Z,81.60
2019-04-30T04:24:10.638Z,82.30
2019-04-30T04:26:59.714Z,82.00
2019-04-30T04:32:43.659Z,81.30
2019-04-30T04:35:13.263Z,81.40
2019-04-30T04:38:05.233Z,81.70
2019-04-30T04:40:53.749Z,80.10
2019-04-30T04:43:42.261Z,80.90
2019-04-30T04:46:11.705Z,82.20
2019-04-30T04:49:00.176Z,81.40
2019-04-30T04:51:38.109Z,81.40
2019-04-30T04:54:20.505Z,82.20
2019-04-30T04:57:14.856Z,81.40
2019-04-30T04:59:42.544Z,82.10
2019-04-30T05:02:49.744Z,81.60
2019-04-30T05:05:39.860Z,82.30
2019-04-30T05:08:21.573Z,81.60
2019-04-30T05:10:50.909Z,81.70
2019-04-30T05:13:20.181Z,82.10
2019-04-30T05:18:48.762Z,81.20
2019-04-30T05:21:41.462Z,80.40
2019-04-30T05:24:00.897Z,81.10
2019-04-30T05:26:49.395Z,80.50
2019-04-30T05:29:38.663Z,80.40
2019-04-30T05:32:29.334Z,80.20
2019-04-30T05:35:18.847Z,79.10
2019-04-30T05:38:09.167Z,78.50
2019-04-30T05:40:59.439Z,77.80
2019-04-30T05:43:48.803Z,78.10
2019-04-30T05:46:39.716Z,77.80
2019-04-30T05:49:28.739Z,78.20
2019-04-30T05:52:19.965Z,77.40
2019-04-30T05:55:27.156Z,78.40
2019-04-30T05:58:15.728Z,78.10
2019-04-30T06:01:04.420Z,77.80
2019-04-30T06:06:49.045Z,78.00
2019-04-30T06:12:56.756Z,76.20
2019-04-30T06:15:42.119Z,76.30
2019-04-30T06:18:22.846Z,76.40
2019-04-30T06:21:04.207Z,76.00
2019-04-30T06:23:45.711Z,76.40
2019-04-30T06:26:27.119Z,76.30
2019-04-30T06:29:09.237Z,77.00
2019-04-30T06:31:50.954Z,76.80
2019-04-30T06:34:32.546Z,76.80
2019-04-30T06:37:13.958Z,76.50
2019-04-30T06:39:55.414Z,77.40
2019-04-30T06:42:36.700Z,76.10
2019-04-30T06:45:19.136Z,77.30
2019-04-30T06:48:00.807Z,76.40
2019-04-30T06:50:42.099Z,77.10
2019-04-30T06:53:23.400Z,76.30
2019-04-30T06:56:04.192Z,75.80
2019-04-30T06:58:45.638Z,76.40
2019-04-30T07:01:28.894Z,76.40
2019-04-30T07:04:10.470Z,75.90
2019-04-30T07:06:51.326Z,74.90
2019-04-30T07:09:56.796Z,73.80
2019-04-30T07:12:52.971Z,74.50
2019-04-30T07:15:35.019Z,73.40
2019-04-30T07:18:15.927Z,73.50
2019-04-30T07:20:58.732Z,73.00
2019-04-30T07:23:40.092Z,73.20
2019-04-30T07:26:24.423Z,72.80
2019-04-30T07:29:04.042Z,72.30
2019-04-30T07:31:45.677Z,71.20
2019-04-30T07:34:29.688Z,71.60
2019-04-30T07:37:17.225Z,68.20
2019-04-30T07:39:52.366Z,66.70
2019-04-30T07:42:38.229Z,67.10
2019-04-30T07:45:16.326Z,65.60
2019-04-30T07:47:59.360Z,65.00
2019-04-30T07:50:41.624Z,63.20
2019-04-30T07:53:23.375Z,63.10
2019-04-30T07:56:23.630Z,60.00
2019-04-30T07:58:47.109Z,58.00
2019-04-30T08:01:29.495Z,57.90
2019-04-30T08:04:29.421Z,58.60
2019-04-30T08:07:12.016Z,57.20
2019-04-30T08:09:53.329Z,57.20
2019-04-30T08:12:36.879Z,55.80
2019-04-30T08:15:19.838Z,58.30
2019-04-30T08:18:08.636Z,57.40
2019-04-30T08:20:49.985Z,55.50
2019-04-30T08:23:36.801Z,53.80
2019-04-30T08:28:53.255Z,54.30
2019-04-30T08:31:34.826Z,55.60
2019-04-30T08:34:16.243Z,54.60
2019-04-30T08:36:56.961Z,55.10
2019-04-30T08:39:39.747Z,54.30
2019-04-30T08:42:30.923Z,55.20
2019-04-30T08:45:04.288Z,55.20
2019-04-30T08:47:45.346Z,53.80
2019-04-30T08:50:26.176Z,55.90
2019-04-30T08:55:50.667Z,52.20
2019-04-30T08:58:31.867Z,50.50
2019-04-30T09:01:01.476Z,53.40
2019-04-30T09:09:44.889Z,51.10
2019-04-30T09:12:26.236Z,50.10
2019-04-30T09:15:09.160Z,49.50
2019-04-30T09:18:00.672Z,52.10
2019-04-30T09:23:42.587Z,48.80
2019-04-30T09:26:12.421Z,49.10
2019-04-30T09:28:53.799Z,46.10
2019-04-30T09:31:35.311Z,49.00
2019-04-30T09:34:20.295Z,49.40
2019-04-30T09:36:59.244Z,45.30
2019-04-30T09:39:40.380Z,47.60
2019-04-30T09:42:21.962Z,44.20
2019-04-30T09:45:03.578Z,47.10
2019-04-30T09:47:45.194Z,48.00
2019-04-30T09:50:28.648Z,44.00
2019-04-30T09:53:10.272Z,45.30
2019-04-30T09:55:52.147Z,43.00
2019-04-30T09:58:32.837Z,40.50
2019-04-30T10:01:14.571Z,41.80
2019-04-30T10:03:56.234Z,41.20
2019-04-30T10:06:40.242Z,44.00
2019-04-30T10:09:19.875Z,41.20
2019-04-30T10:15:11.652Z,42.40
2019-04-30T10:17:53.087Z,41.50
2019-04-30T10:20:34.468Z,41.00
2019-04-30T10:26:11.596Z,41.00
2019-04-30T10:32:08.831Z,46.90
2019-04-30T10:34:58.614Z,42.70
2019-04-30T10:37:48.533Z,41.70
2019-04-30T10:40:38.949Z,42.60
2019-04-30T10:43:29.384Z,40.50
2019-04-30T10:46:17.987Z,39.50
2019-04-30T10:49:08.901Z,41.00
2019-04-30T10:51:57.054Z,40.60
2019-04-30T10:54:45.699Z,40.80
2019-04-30T10:57:34.275Z,39.60
2019-04-30T11:03:39.100Z,38.00
2019-04-30T11:06:09.511Z,39.30
2019-04-30T11:08:58.055Z,38.20
2019-04-30T11:11:39.794Z,38.50
2019-04-30T11:14:21.439Z,36.70
2019-04-30T11:22:39.817Z,41.50
2019-04-30T11:25:30.861Z,35.50
2019-04-30T11:28:19.285Z,37.80
2019-04-30T11:31:28.022Z,40.30
2019-04-30T11:34:16.906Z,39.90
2019-04-30T11:40:02.885Z,36.40
2019-04-30T11:48:44.764Z,35.10
2019-04-30T11:57:36.358Z,33.70
2019-04-30T12:03:09.529Z,34.90
2019-04-30T12:14:36.936Z,34.40
2019-04-30T12:20:08.607Z,37.50
2019-04-30T12:22:39.695Z,35.10
2019-04-30T12:25:10.045Z,34.40
2019-04-30T12:27:59.616Z,36.90
2019-04-30T12:30:48.983Z,38.50
2019-04-30T12:33:38.620Z,37.00
2019-04-30T12:36:28.834Z,37.00
2019-04-30T12:39:17.501Z,36.00
2019-04-30T12:42:06.044Z,38.10
2019-04-30T12:44:55.018Z,36.70
2019-04-30T12:50:59.064Z,37.60
2019-04-30T12:56:41.817Z,37.30
2019-04-30T12:59:23.407Z,35.40
2019-04-30T13:01:53.007Z,33.50
2019-04-30T13:04:22.473Z,36.50
2019-04-30T13:07:11.879Z,36.60
2019-04-30T13:09:42.659Z,36.80
2019-04-30T13:12:32.397Z,36.60
2019-04-30T13:15:21.946Z,34.70
2019-04-30T13:18:10.869Z,37.00
2019-04-30T13:20:59.486Z,37.90
2019-04-30T13:23:47.962Z,37.20
2019-04-30T13:26:36.578Z,37.20
2019-04-30T13:29:44.121Z,38.00
2019-04-30T13:35:15.331Z,36.50
2019-04-30T13:38:03.991Z,37.60
2019-04-30T13:40:52.156Z,36.50
2019-04-30T13:46:33.511Z,35.00
2019-04-30T13:49:22.496Z,38.60
2019-04-30T13:51:52.080Z,37.70
2019-04-30T13:54:33.096Z,36.40
2019-04-30T13:57:14.642Z,37.70
2019-04-30T13:59:55.644Z,38.80
2019-04-30T14:02:26.660Z,37.40
2019-04-30T14:10:45.346Z,38.60
2019-04-30T14:13:14.762Z,37.60
2019-04-30T14:18:28.439Z,36.70
2019-04-30T14:21:11.391Z,38.10
2019-04-30T14:24:00.086Z,38.70
2019-04-30T14:26:49.116Z,38.30
2019-04-30T14:29:39.632Z,37.00
2019-04-30T14:32:29.856Z,38.80
2019-04-30T14:35:19.156Z,39.10
2019-04-30T14:38:09.050Z,37.70
2019-04-30T14:41:00.652Z,38.00
2019-04-30T14:44:08.012Z,37.90
2019-04-30T14:47:16.716Z,37.70
2019-04-30T14:53:21.226Z,35.80
2019-04-30T14:56:29.481Z,38.80
2019-04-30T15:05:19.617Z,39.70
2019-04-30T15:07:52.729Z,40.10
2019-04-30T15:10:41.806Z,37.40
2019-04-30T15:13:12.040Z,37.00
2019-04-30T15:16:46.745Z,37.00
2019-04-30T15:22:03.954Z,37.60
2019-04-30T15:30:45.114Z,38.10
2019-04-30T15:36:22.359Z,38.20
2019-04-30T15:45:06.237Z,38.70
2019-04-30T15:47:55.140Z,38.90
2019-04-30T15:50:24.732Z,38.80
2019-04-30T15:53:13.292Z,38.30
2019-04-30T15:55:42.991Z,39.10
2019-04-30T15:58:33.488Z,38.60
2019-04-30T16:01:22.049Z,38.10
2019-04-30T16:07:20.606Z,37.60
2019-04-30T16:10:28.595Z,37.30
2019-04-30T16:16:14.378Z,36.90
2019-04-30T16:19:03.239Z,35.60
2019-04-30T16:24:54.713Z,36.50
2019-04-30T16:27:25.298Z,36.80
2019-04-30T16:29:55.608Z,36.30
2019-04-30T16:32:25.749Z,36.10
2019-04-30T16:34:55.410Z,35.00
2019-04-30T16:37:26.312Z,33.90
2019-04-30T16:39:55.821Z,32.10
2019-04-30T16:42:25.298Z,30.90
2019-04-30T16:44:54.720Z,29.70
2019-04-30T16:47:43.320Z,29.80
2019-04-30T16:50:31.782Z,28.90
2019-04-30T16:53:20.172Z,28.70
2019-04-30T16:56:01.044Z,29.00
2019-04-30T16:58:52.038Z,28.20
2019-04-30T17:01:26.626Z,28.40
2019-04-30T17:03:59.536Z,28.30
2019-04-30T17:06:30.735Z,27.60
2019-04-30T17:18:19.069Z,29.30
2019-04-30T17:20:49.209Z,31.00
2019-04-30T17:26:14.661Z,32.30
2019-04-30T17:29:03.128Z,32.70
2019-04-30T17:31:32.681Z,32.80
2019-04-30T17:34:21.224Z,34.00
2019-04-30T17:36:50.817Z,34.70
2019-04-30T17:39:41.082Z,37.10
2019-04-30T17:42:10.513Z,37.10
2019-04-30T17:51:02.776Z,39.20
2019-04-30T17:53:33.023Z,40.20
2019-04-30T17:58:59.740Z,40.70
2019-04-30T18:01:42.933Z,41.80
2019-04-30T18:04:12.341Z,42.20
2019-04-30T18:06:41.692Z,44.50
2019-04-30T18:09:30.329Z,43.40
2019-04-30T18:11:59.755Z,44.60
2019-04-30T18:14:49.499Z,46.30
2019-04-30T18:17:38.029Z,46.80
2019-04-30T18:29:52.426Z,48.20
2019-04-30T18:32:41.199Z,48.10
2019-04-30T18:35:29.691Z,47.90
2019-04-30T18:38:18.179Z,47.30
2019-04-30T18:41:09.396Z,48.50
2019-04-30T18:43:59.574Z,47.80
2019-04-30T18:46:29.262Z,48.80
2019-04-30T18:49:18.736Z,48.60
2019-04-30T18:52:09.079Z,47.90
2019-04-30T18:54:57.050Z,49.40
2019-04-30T18:57:26.647Z,50.60
2019-04-30T18:59:56.245Z,50.80
2019-04-30T19:02:25.958Z,48.40
2019-04-30T19:04:55.516Z,49.80
2019-04-30T19:07:44.277Z,50.90
2019-04-30T19:10:36.360Z,51.20
2019-04-30T19:13:23.828Z,51.90
2019-04-30T19:16:21.773Z,52.40
2019-04-30T19:18:52.991Z,51.80
2019-04-30T19:21:22.652Z,52.00
2019-04-30T19:23:52.115Z,52.10
2019-04-30T19:26:21.634Z,52.50
2019-04-30T19:28:51.112Z,53.80
2019-04-30T19:31:20.665Z,54.20
2019-04-30T19:33:50.242Z,54.70
2019-04-30T19:36:20.999Z,54.90
2019-04-30T19:38:51.757Z,52.90
2019-04-30T19:41:21.343Z,54.60
2019-04-30T19:43:51.192Z,55.00
2019-04-30T19:46:20.748Z,55.10
2019-04-30T19:48:50.757Z,55.40
2019-04-30T19:51:20.423Z,55.80
2019-04-30T19:53:49.996Z,57.00
2019-04-30T19:56:20.612Z,57.00
2019-04-30T19:59:01.552Z,57.80
2019-04-30T20:01:21.544Z,57.20
2019-04-30T20:03:51.087Z,58.10
2019-04-30T20:06:20.682Z,58.20
2019-04-30T20:08:50.239Z,57.60
2019-04-30T20:11:19.798Z,58.50
2019-04-30T20:13:49.302Z,57.80
2019-04-30T20:16:19.564Z,57.60
2019-04-30T20:18:49.363Z,57.00
2019-04-30T20:21:27.872Z,60.80
2019-04-30T20:23:52.032Z,59.50
2019-04-30T20:26:21.635Z,60.50
2019-04-30T20:28:51.115Z,60.80
2019-04-30T20:31:20.638Z,60.80
2019-04-30T20:33:50.184Z,60.10
2019-04-30T20:36:19.727Z,59.30
2019-04-30T20:39:17.603Z,59.90
2019-04-30T20:41:49.170Z,60.50
2019-04-30T20:44:19.044Z,59.60
2019-04-30T20:46:49.146Z,60.30
2019-04-30T20:49:19.287Z,60.40
2019-04-30T20:51:55.049Z,59.60
2019-04-30T20:54:20.090Z,59.80
2019-04-30T20:56:50.986Z,58.90
2019-04-30T20:59:21.169Z,60.00
2019-04-30T21:01:50.784Z,59.60
2019-04-30T21:04:20.890Z,58.20
2019-04-30T21:06:50.791Z,57.80
2019-04-30T21:09:20.285Z,58.40
2019-04-30T21:11:49.821Z,59.40
2019-04-30T21:14:19.797Z,60.60
2019-04-30T21:16:49.241Z,61.10
2019-04-30T21:19:18.830Z,60.10
2019-04-30T21:21:49.717Z,60.80
2019-04-30T21:24:19.308Z,60.00
2019-04-30T21:26:48.859Z,61.10
2019-04-30T21:29:18.881Z,61.30
2019-04-30T21:32:06.369Z,60.80
2019-04-30T21:34:42.935Z,60.80
2019-04-30T21:37:12.491Z,59.60
2019-04-30T21:39:41.991Z,60.40
2019-04-30T21:42:11.532Z,59.70
2019-04-30T21:44:41.087Z,59.40
2019-04-30T21:47:10.615Z,59.30
2019-04-30T21:49:40.196Z,59.80
2019-04-30T21:52:09.766Z,59.70
2019-04-30T21:54:39.382Z,58.40
2019-04-30T21:57:08.898Z,59.30
2019-04-30T21:59:38.808Z,57.80
2019-04-30T22:02:08.864Z,58.20
2019-04-30T22:04:38.492Z,57.90
2019-04-30T22:07:09.406Z,59.10
2019-04-30T22:09:39.072Z,60.40
2019-04-30T22:12:09.212Z,60.30
2019-04-30T22:14:38.785Z,59.90
2019-04-30T22:17:09.325Z,60.80
2019-04-30T22:19:38.959Z,60.00
2019-04-30T22:22:09.361Z,60.80
2019-04-30T22:24:39.097Z,61.00
2019-04-30T22:27:08.559Z,61.80
2019-04-30T22:29:41.867Z,61.50
2019-04-30T22:32:09.431Z,61.80
2019-04-30T22:34:38.975Z,61.90
2019-04-30T22:37:08.656Z,62.10
2019-04-30T22:39:53.742Z,61.90
2019-04-30T22:42:32.442Z,62.90
2019-04-30T22:45:02.507Z,62.90
2019-04-30T22:47:31.959Z,63.70
2019-04-30T22:50:01.434Z,63.50
2019-04-30T22:52:30.995Z,62.70
2019-04-30T22:55:00.458Z,62.00
2019-04-30T22:57:29.983Z,62.40
2019-04-30T22:59:59.484Z,63.70
2019-04-30T23:02:37.676Z,63.70
2019-04-30T23:05:08.664Z,62.90
2019-04-30T23:07:38.199Z,64.40
2019-04-30T23:10:08.093Z,64.20
2019-04-30T23:12:37.898Z,64.60
2019-04-30T23:15:07.779Z,65.70
2019-04-30T23:17:37.363Z,64.90
2019-04-30T23:20:07.833Z,65.00
2019-04-30T23:22:37.366Z,65.10
2019-04-30T23:25:06.981Z,65.30
2019-04-30T23:27:36.544Z,65.00
2019-04-30T23:30:07.267Z,65.30
2019-04-30T23:32:36.752Z,65.60
2019-04-30T23:35:06.438Z,66.00
2019-04-30T23:37:35.980Z,65.70
2019-04-30T23:40:47.783Z,66.30
2019-04-30T23:43:17.279Z,66.00
2019-04-30T23:45:46.818Z,65.50
2019-04-30T23:48:16.306Z,66.30
2019-04-30T23:50:46.458Z,65.30
2019-04-30T23:53:16.022Z,65.60
2019-04-30T23:55:45.534Z,65.90
2019-04-30T23:58:15.067Z,65.10
